sensor_id;sensor_type;location;lat;lon;timestamp;P1;durP1;ratioP1;P2;durP2;ratioP2
2674;SDS011;1347;42.122;24.746;2022-09-16T00:01:02;13.20;;;6.07;;
2674;SDS011;1347;42.122;24.746;2022-09-16T00:03:35;8.47;;;4.87;;
2674;SDS011;1347;42.122;24.746;2022-09-16T00:06:02;14.50;;;4.90;;
2674;SDS011;1347;42.122;24.746;2022-09-16T00:08:31;13.10;;;5.70;;
2674;SDS011;1347;42.122;24.746;2022-09-16T00:10:58;10.20;;;4.83;;
2674;SDS011;1347;42.122;24.746;2022-09-16T00:13:25;7.03;;;4.27;;
2674;SDS011;1347;42.122;24.746;2022-09-16T00:15:53;12.10;;;5.03;;
2674;SDS011;1347;42.122;24.746;2022-09-16T00:18:20;8.10;;;5.17;;
2674;SDS011;1347;42.122;24.746;2022-09-16T00:20:48;13.07;;;4.70;;
2674;SDS011;1347;42.122;24.746;2022-09-16T00:23:19;11.23;;;4.20;;
2674;SDS011;1347;42.122;24.746;2022-09-16T00:25:50;7.70;;;4.90;;
2674;SDS011;1347;42.122;24.746;2022-09-16T00:28:18;11.27;;;4.77;;
2674;SDS011;1347;42.122;24.746;2022-09-16T00:30:45;8.50;;;3.87;;
2674;SDS011;1347;42.122;24.746;2022-09-16T00:33:13;7.60;;;4.40;;
2674;SDS011;1347;42.122;24.746;2022-09-16T00:35:40;14.70;;;5.47;;
2674;SDS011;1347;42.122;24.746;2022-09-16T00:38:07;9.27;;;4.30;;
2674;SDS011;1347;42.122;24.746;2022-09-16T00:40:34;11.40;;;4.60;;
2674;SDS011;1347;42.122;24.746;2022-09-16T00:43:10;10.30;;;4.83;;
2674;SDS011;1347;42.122;24.746;2022-09-16T00:45:38;11.30;;;4.67;;
2674;SDS011;1347;42.122;24.746;2022-09-16T00:48:06;9.63;;;4.77;;
2674;SDS011;1347;42.122;24.746;2022-09-16T00:50:37;10.00;;;4.80;;
2674;SDS011;1347;42.122;24.746;2022-09-16T00:53:10;7.50;;;5.33;;
2674;SDS011;1347;42.122;24.746;2022-09-16T00:55:41;8.93;;;5.03;;
2674;SDS011;1347;42.122;24.746;2022-09-16T00:58:11;11.60;;;5.00;;
2674;SDS011;1347;42.122;24.746;2022-09-16T01:00:44;8.60;;;5.60;;
2674;SDS011;1347;42.122;24.746;2022-09-16T01:03:11;10.03;;;4.90;;
2674;SDS011;1347;42.122;24.746;2022-09-16T01:05:38;10.60;;;4.90;;
2674;SDS011;1347;42.122;24.746;2022-09-16T01:08:05;14.30;;;6.43;;
2674;SDS011;1347;42.122;24.746;2022-09-16T01:10:32;6.63;;;4.70;;
2674;SDS011;1347;42.122;24.746;2022-09-16T01:13:00;13.20;;;5.53;;
2674;SDS011;1347;42.122;24.746;2022-09-16T01:15:32;17.27;;;5.20;;
2674;SDS011;1347;42.122;24.746;2022-09-16T01:18:07;14.03;;;5.80;;
2674;SDS011;1347;42.122;24.746;2022-09-16T01:24:01;11.23;;;6.00;;
2674;SDS011;1347;42.122;24.746;2022-09-16T01:33:00;9.10;;;6.00;;
2674;SDS011;1347;42.122;24.746;2022-09-16T01:35:36;12.60;;;7.37;;
2674;SDS011;1347;42.122;24.746;2022-09-16T01:38:22;12.57;;;6.00;;
2674;SDS011;1347;42.122;24.746;2022-09-16T01:41:00;13.70;;;6.37;;
2674;SDS011;1347;42.122;24.746;2022-09-16T01:43:38;12.07;;;5.70;;
2674;SDS011;1347;42.122;24.746;2022-09-16T01:46:11;16.30;;;6.50;;
2674;SDS011;1347;42.122;24.746;2022-09-16T01:48:47;8.60;;;5.20;;
2674;SDS011;1347;42.122;24.746;2022-09-16T01:51:20;7.60;;;6.13;;
2674;SDS011;1347;42.122;24.746;2022-09-16T01:53:52;15.60;;;7.17;;
2674;SDS011;1347;42.122;24.746;2022-09-16T01:56:28;12.60;;;5.80;;
2674;SDS011;1347;42.122;24.746;2022-09-16T01:59:01;15.33;;;7.30;;
2674;SDS011;1347;42.122;24.746;2022-09-16T02:01:34;14.37;;;5.73;;
2674;SDS011;1347;42.122;24.746;2022-09-16T02:04:08;18.80;;;6.27;;
2674;SDS011;1347;42.122;24.746;2022-09-16T02:06:41;10.87;;;6.70;;
2674;SDS011;1347;42.122;24.746;2022-09-16T02:09:12;10.93;;;5.33;;
2674;SDS011;1347;42.122;24.746;2022-09-16T02:11:42;14.87;;;6.20;;
2674;SDS011;1347;42.122;24.746;2022-09-16T02:14:12;13.13;;;7.10;;
2674;SDS011;1347;42.122;24.746;2022-09-16T02:16:44;11.23;;;6.30;;
2674;SDS011;1347;42.122;24.746;2022-09-16T02:19:18;12.13;;;5.93;;
2674;SDS011;1347;42.122;24.746;2022-09-16T02:21:48;14.60;;;7.30;;
2674;SDS011;1347;42.122;24.746;2022-09-16T02:24:17;10.57;;;5.60;;
2674;SDS011;1347;42.122;24.746;2022-09-16T02:26:47;11.63;;;6.27;;
2674;SDS011;1347;42.122;24.746;2022-09-16T02:29:18;18.57;;;6.77;;
2674;SDS011;1347;42.122;24.746;2022-09-16T02:31:48;9.70;;;5.13;;
2674;SDS011;1347;42.122;24.746;2022-09-16T02:34:19;16.87;;;5.93;;
2674;SDS011;1347;42.122;24.746;2022-09-16T02:36:52;8.03;;;5.93;;
2674;SDS011;1347;42.122;24.746;2022-09-16T02:39:25;18.70;;;4.93;;
2674;SDS011;1347;42.122;24.746;2022-09-16T02:41:55;13.27;;;5.70;;
2674;SDS011;1347;42.122;24.746;2022-09-16T02:44:24;12.83;;;5.37;;
2674;SDS011;1347;42.122;24.746;2022-09-16T02:46:53;9.80;;;5.73;;
2674;SDS011;1347;42.122;24.746;2022-09-16T02:49:28;12.70;;;4.93;;
2674;SDS011;1347;42.122;24.746;2022-09-16T02:52:07;9.33;;;5.00;;
2674;SDS011;1347;42.122;24.746;2022-09-16T02:54:41;13.33;;;5.70;;
2674;SDS011;1347;42.122;24.746;2022-09-16T02:57:14;10.43;;;5.90;;
2674;SDS011;1347;42.122;24.746;2022-09-16T02:59:41;15.40;;;5.63;;
2674;SDS011;1347;42.122;24.746;2022-09-16T03:02:09;12.10;;;5.30;;
2674;SDS011;1347;42.122;24.746;2022-09-16T03:04:37;13.37;;;5.90;;
2674;SDS011;1347;42.122;24.746;2022-09-16T03:07:05;16.73;;;7.23;;
2674;SDS011;1347;42.122;24.746;2022-09-16T03:09:35;15.27;;;7.43;;
2674;SDS011;1347;42.122;24.746;2022-09-16T03:15:12;16.13;;;6.07;;
2674;SDS011;1347;42.122;24.746;2022-09-16T03:17:51;9.47;;;6.77;;
2674;SDS011;1347;42.122;24.746;2022-09-16T03:20:35;12.20;;;5.90;;
2674;SDS011;1347;42.122;24.746;2022-09-16T03:23:12;18.90;;;6.20;;
2674;SDS011;1347;42.122;24.746;2022-09-16T03:25:47;17.67;;;7.10;;
2674;SDS011;1347;42.122;24.746;2022-09-16T03:28:24;8.03;;;5.90;;
2674;SDS011;1347;42.122;24.746;2022-09-16T03:30:55;10.30;;;5.43;;
2674;SDS011;1347;42.122;24.746;2022-09-16T03:33:30;9.93;;;6.67;;
2674;SDS011;1347;42.122;24.746;2022-09-16T03:36:02;9.50;;;5.90;;
2674;SDS011;1347;42.122;24.746;2022-09-16T03:38:34;8.53;;;5.40;;
2674;SDS011;1347;42.122;24.746;2022-09-16T03:41:03;13.30;;;6.17;;
2674;SDS011;1347;42.122;24.746;2022-09-16T03:43:33;14.67;;;6.93;;
2674;SDS011;1347;42.122;24.746;2022-09-16T03:46:00;11.10;;;6.77;;
2674;SDS011;1347;42.122;24.746;2022-09-16T03:48:27;13.40;;;6.43;;
2674;SDS011;1347;42.122;24.746;2022-09-16T03:50:54;13.10;;;6.00;;
2674;SDS011;1347;42.122;24.746;2022-09-16T03:53:22;16.00;;;8.97;;
2674;SDS011;1347;42.122;24.746;2022-09-16T03:55:49;11.67;;;7.33;;
2674;SDS011;1347;42.122;24.746;2022-09-16T03:58:16;12.70;;;6.13;;
2674;SDS011;1347;42.122;24.746;2022-09-16T04:00:47;16.37;;;6.70;;
2674;SDS011;1347;42.122;24.746;2022-09-16T04:03:15;18.17;;;7.30;;
2674;SDS011;1347;42.122;24.746;2022-09-16T04:05:42;14.00;;;5.70;;
2674;SDS011;1347;42.122;24.746;2022-09-16T04:08:09;15.03;;;5.90;;
2674;SDS011;1347;42.122;24.746;2022-09-16T04:10:38;12.90;;;7.60;;
2674;SDS011;1347;42.122;24.746;2022-09-16T04:13:05;7.90;;;5.90;;
2674;SDS011;1347;42.122;24.746;2022-09-16T04:15:35;14.53;;;7.60;;
2674;SDS011;1347;42.122;24.746;2022-09-16T04:18:02;13.90;;;8.50;;
2674;SDS011;1347;42.122;24.746;2022-09-16T04:20:29;20.77;;;8.80;;
2674;SDS011;1347;42.122;24.746;2022-09-16T04:22:56;17.43;;;9.57;;
2674;SDS011;1347;42.122;24.746;2022-09-16T04:25:23;19.50;;;9.70;;
2674;SDS011;1347;42.122;24.746;2022-09-16T04:27:51;22.00;;;9.80;;
2674;SDS011;1347;42.122;24.746;2022-09-16T04:30:18;22.03;;;10.77;;
2674;SDS011;1347;42.122;24.746;2022-09-16T04:32:45;33.40;;;10.23;;
2674;SDS011;1347;42.122;24.746;2022-09-16T04:35:12;25.13;;;9.93;;
2674;SDS011;1347;42.122;24.746;2022-09-16T04:37:41;17.57;;;9.17;;
2674;SDS011;1347;42.122;24.746;2022-09-16T04:40:08;20.33;;;9.23;;
2674;SDS011;1347;42.122;24.746;2022-09-16T04:42:35;30.87;;;12.07;;
2674;SDS011;1347;42.122;24.746;2022-09-16T04:45:04;19.90;;;11.40;;
2674;SDS011;1347;42.122;24.746;2022-09-16T04:47:32;35.17;;;10.20;;
2674;SDS011;1347;42.122;24.746;2022-09-16T04:49:59;18.27;;;11.30;;
2674;SDS011;1347;42.122;24.746;2022-09-16T04:52:26;22.80;;;10.10;;
2674;SDS011;1347;42.122;24.746;2022-09-16T04:54:55;34.47;;;11.33;;
2674;SDS011;1347;42.122;24.746;2022-09-16T04:57:22;29.73;;;11.67;;
2674;SDS011;1347;42.122;24.746;2022-09-16T04:59:49;19.90;;;9.27;;
2674;SDS011;1347;42.122;24.746;2022-09-16T05:02:17;30.93;;;11.17;;
2674;SDS011;1347;42.122;24.746;2022-09-16T05:04:44;25.33;;;10.37;;
2674;SDS011;1347;42.122;24.746;2022-09-16T05:07:11;17.63;;;9.77;;
2674;SDS011;1347;42.122;24.746;2022-09-16T05:09:38;27.63;;;10.80;;
2674;SDS011;1347;42.122;24.746;2022-09-16T05:12:05;26.77;;;10.30;;
2674;SDS011;1347;42.122;24.746;2022-09-16T05:14:33;28.47;;;9.90;;
2674;SDS011;1347;42.122;24.746;2022-09-16T05:17:00;11.20;;;8.47;;
2674;SDS011;1347;42.122;24.746;2022-09-16T05:19:28;20.20;;;10.30;;
2674;SDS011;1347;42.122;24.746;2022-09-16T05:21:55;18.30;;;9.63;;
2674;SDS011;1347;42.122;24.746;2022-09-16T05:24:22;26.13;;;11.40;;
2674;SDS011;1347;42.122;24.746;2022-09-16T05:26:50;17.20;;;7.73;;
2674;SDS011;1347;42.122;24.746;2022-09-16T05:29:16;15.33;;;9.00;;
2674;SDS011;1347;42.122;24.746;2022-09-16T05:31:44;20.77;;;9.53;;
2674;SDS011;1347;42.122;24.746;2022-09-16T05:34:13;20.10;;;9.30;;
2674;SDS011;1347;42.122;24.746;2022-09-16T05:36:42;21.53;;;9.40;;
2674;SDS011;1347;42.122;24.746;2022-09-16T05:39:12;16.70;;;8.90;;
2674;SDS011;1347;42.122;24.746;2022-09-16T05:41:41;16.97;;;7.47;;
2674;SDS011;1347;42.122;24.746;2022-09-16T05:44:10;16.67;;;7.00;;
2674;SDS011;1347;42.122;24.746;2022-09-16T05:46:39;22.80;;;6.77;;
2674;SDS011;1347;42.122;24.746;2022-09-16T05:49:09;13.83;;;6.37;;
2674;SDS011;1347;42.122;24.746;2022-09-16T05:51:36;28.33;;;9.00;;
2674;SDS011;1347;42.122;24.746;2022-09-16T05:54:07;20.33;;;9.00;;
2674;SDS011;1347;42.122;24.746;2022-09-16T05:56:34;26.50;;;9.63;;
2674;SDS011;1347;42.122;24.746;2022-09-16T05:59:03;19.57;;;7.80;;
2674;SDS011;1347;42.122;24.746;2022-09-16T06:01:31;13.90;;;7.73;;
2674;SDS011;1347;42.122;24.746;2022-09-16T06:04:01;16.77;;;10.10;;
2674;SDS011;1347;42.122;24.746;2022-09-16T06:06:32;27.37;;;7.67;;
2674;SDS011;1347;42.122;24.746;2022-09-16T06:09:04;26.00;;;10.37;;
2674;SDS011;1347;42.122;24.746;2022-09-16T06:11:39;18.20;;;9.03;;
2674;SDS011;1347;42.122;24.746;2022-09-16T06:14:07;23.03;;;9.27;;
2674;SDS011;1347;42.122;24.746;2022-09-16T06:16:36;21.37;;;9.70;;
2674;SDS011;1347;42.122;24.746;2022-09-16T06:19:10;28.30;;;9.40;;
2674;SDS011;1347;42.122;24.746;2022-09-16T06:21:42;19.10;;;12.20;;
2674;SDS011;1347;42.122;24.746;2022-09-16T06:24:10;22.63;;;11.13;;
2674;SDS011;1347;42.122;24.746;2022-09-16T06:26:41;19.07;;;8.77;;
2674;SDS011;1347;42.122;24.746;2022-09-16T06:29:11;20.87;;;9.33;;
2674;SDS011;1347;42.122;24.746;2022-09-16T06:31:54;25.57;;;9.00;;
2674;SDS011;1347;42.122;24.746;2022-09-16T06:34:21;24.93;;;9.60;;
2674;SDS011;1347;42.122;24.746;2022-09-16T06:36:49;21.67;;;11.70;;
2674;SDS011;1347;42.122;24.746;2022-09-16T06:39:33;19.37;;;9.13;;
2674;SDS011;1347;42.122;24.746;2022-09-16T06:42:20;28.50;;;10.60;;
2674;SDS011;1347;42.122;24.746;2022-09-16T06:45:17;20.33;;;9.93;;
2674;SDS011;1347;42.122;24.746;2022-09-16T06:47:48;16.53;;;9.10;;
2674;SDS011;1347;42.122;24.746;2022-09-16T06:50:32;19.97;;;9.20;;
2674;SDS011;1347;42.122;24.746;2022-09-16T06:53:23;26.07;;;9.37;;
2674;SDS011;1347;42.122;24.746;2022-09-16T06:55:52;17.27;;;8.47;;
2674;SDS011;1347;42.122;24.746;2022-09-16T06:58:51;22.77;;;10.43;;
2674;SDS011;1347;42.122;24.746;2022-09-16T07:01:33;22.03;;;8.60;;
2674;SDS011;1347;42.122;24.746;2022-09-16T07:04:19;23.20;;;11.33;;
2674;SDS011;1347;42.122;24.746;2022-09-16T07:07:00;24.67;;;9.60;;
2674;SDS011;1347;42.122;24.746;2022-09-16T07:09:31;18.73;;;8.17;;
2674;SDS011;1347;42.122;24.746;2022-09-16T07:12:12;17.90;;;8.63;;
2674;SDS011;1347;42.122;24.746;2022-09-16T07:14:42;18.47;;;8.90;;
2674;SDS011;1347;42.122;24.746;2022-09-16T07:17:09;15.53;;;8.53;;
2674;SDS011;1347;42.122;24.746;2022-09-16T07:19:36;21.50;;;9.10;;
2674;SDS011;1347;42.122;24.746;2022-09-16T07:22:04;18.67;;;8.57;;
2674;SDS011;1347;42.122;24.746;2022-09-16T07:24:31;15.63;;;8.47;;
2674;SDS011;1347;42.122;24.746;2022-09-16T07:26:58;18.57;;;7.00;;
2674;SDS011;1347;42.122;24.746;2022-09-16T07:29:25;20.97;;;7.43;;
2674;SDS011;1347;42.122;24.746;2022-09-16T07:31:54;28.63;;;7.97;;
2674;SDS011;1347;42.122;24.746;2022-09-16T07:34:20;20.67;;;8.03;;
2674;SDS011;1347;42.122;24.746;2022-09-16T07:36:48;9.43;;;6.87;;
2674;SDS011;1347;42.122;24.746;2022-09-16T07:39:15;16.63;;;6.57;;
2674;SDS011;1347;42.122;24.746;2022-09-16T07:41:44;10.87;;;6.70;;
2674;SDS011;1347;42.122;24.746;2022-09-16T07:44:14;14.30;;;7.00;;
2674;SDS011;1347;42.122;24.746;2022-09-16T07:46:42;16.30;;;8.00;;
2674;SDS011;1347;42.122;24.746;2022-09-16T07:49:11;16.53;;;6.83;;
2674;SDS011;1347;42.122;24.746;2022-09-16T07:51:39;18.83;;;7.17;;
2674;SDS011;1347;42.122;24.746;2022-09-16T07:54:07;16.83;;;7.80;;
2674;SDS011;1347;42.122;24.746;2022-09-16T07:56:37;13.23;;;7.00;;
2674;SDS011;1347;42.122;24.746;2022-09-16T07:59:06;16.80;;;7.37;;
2674;SDS011;1347;42.122;24.746;2022-09-16T08:01:36;14.70;;;7.70;;
2674;SDS011;1347;42.122;24.746;2022-09-16T08:04:04;17.90;;;9.90;;
2674;SDS011;1347;42.122;24.746;2022-09-16T08:06:32;13.23;;;7.87;;
2674;SDS011;1347;42.122;24.746;2022-09-16T08:09:03;13.83;;;7.90;;
2674;SDS011;1347;42.122;24.746;2022-09-16T08:11:30;12.77;;;8.07;;
2674;SDS011;1347;42.122;24.746;2022-09-16T08:13:57;18.47;;;8.10;;
2674;SDS011;1347;42.122;24.746;2022-09-16T08:16:25;12.97;;;7.70;;
2674;SDS011;1347;42.122;24.746;2022-09-16T08:18:53;9.63;;;7.50;;
2674;SDS011;1347;42.122;24.746;2022-09-16T08:21:22;13.37;;;8.60;;
2674;SDS011;1347;42.122;24.746;2022-09-16T08:23:51;16.57;;;7.57;;
2674;SDS011;1347;42.122;24.746;2022-09-16T08:26:19;12.17;;;7.07;;
2674;SDS011;1347;42.122;24.746;2022-09-16T08:28:46;15.53;;;7.50;;
2674;SDS011;1347;42.122;24.746;2022-09-16T08:31:14;14.60;;;7.87;;
2674;SDS011;1347;42.122;24.746;2022-09-16T08:33:42;13.10;;;7.27;;
2674;SDS011;1347;42.122;24.746;2022-09-16T08:36:11;16.77;;;12.53;;
2674;SDS011;1347;42.122;24.746;2022-09-16T08:38:40;18.90;;;10.40;;
2674;SDS011;1347;42.122;24.746;2022-09-16T08:41:17;17.50;;;8.17;;
2674;SDS011;1347;42.122;24.746;2022-09-16T08:43:53;17.67;;;7.90;;
2674;SDS011;1347;42.122;24.746;2022-09-16T08:46:28;10.27;;;7.00;;
2674;SDS011;1347;42.122;24.746;2022-09-16T08:49:02;14.63;;;6.93;;
2674;SDS011;1347;42.122;24.746;2022-09-16T08:51:37;8.07;;;7.27;;
2674;SDS011;1347;42.122;24.746;2022-09-16T08:54:05;12.90;;;7.07;;
2674;SDS011;1347;42.122;24.746;2022-09-16T08:56:39;13.20;;;8.30;;
2674;SDS011;1347;42.122;24.746;2022-09-16T08:59:10;13.30;;;9.60;;
2674;SDS011;1347;42.122;24.746;2022-09-16T09:01:43;20.90;;;9.00;;
2674;SDS011;1347;42.122;24.746;2022-09-16T09:04:15;19.67;;;8.63;;
2674;SDS011;1347;42.122;24.746;2022-09-16T09:06:49;12.43;;;7.43;;
2674;SDS011;1347;42.122;24.746;2022-09-16T09:09:30;15.00;;;7.20;;
2674;SDS011;1347;42.122;24.746;2022-09-16T09:12:17;14.73;;;6.50;;
2674;SDS011;1347;42.122;24.746;2022-09-16T09:14:58;13.77;;;6.50;;
2674;SDS011;1347;42.122;24.746;2022-09-16T09:17:34;11.00;;;5.93;;
2674;SDS011;1347;42.122;24.746;2022-09-16T09:20:13;12.27;;;6.70;;
2674;SDS011;1347;42.122;24.746;2022-09-16T09:23:01;12.97;;;5.60;;
2674;SDS011;1347;42.122;24.746;2022-09-16T09:25:46;10.37;;;5.90;;
2674;SDS011;1347;42.122;24.746;2022-09-16T09:28:55;11.63;;;5.97;;
2674;SDS011;1347;42.122;24.746;2022-09-16T09:31:39;12.33;;;6.03;;
2674;SDS011;1347;42.122;24.746;2022-09-16T09:34:17;13.77;;;6.63;;
2674;SDS011;1347;42.122;24.746;2022-09-16T09:37:00;15.97;;;6.83;;
2674;SDS011;1347;42.122;24.746;2022-09-16T09:39:45;17.70;;;7.93;;
2674;SDS011;1347;42.122;24.746;2022-09-16T09:42:27;22.90;;;6.80;;
2674;SDS011;1347;42.122;24.746;2022-09-16T09:45:00;20.37;;;7.93;;
2674;SDS011;1347;42.122;24.746;2022-09-16T09:47:31;15.07;;;5.97;;
2674;SDS011;1347;42.122;24.746;2022-09-16T09:50:08;18.33;;;6.33;;
2674;SDS011;1347;42.122;24.746;2022-09-16T09:52:42;15.40;;;6.60;;
2674;SDS011;1347;42.122;24.746;2022-09-16T09:55:14;18.33;;;6.80;;
2674;SDS011;1347;42.122;24.746;2022-09-16T09:57:46;13.27;;;6.93;;
2674;SDS011;1347;42.122;24.746;2022-09-16T10:00:26;25.73;;;6.73;;
2674;SDS011;1347;42.122;24.746;2022-09-16T10:03:00;18.73;;;6.20;;
2674;SDS011;1347;42.122;24.746;2022-09-16T10:05:29;16.63;;;6.77;;
2674;SDS011;1347;42.122;24.746;2022-09-16T10:07:57;6.73;;;5.30;;
2674;SDS011;1347;42.122;24.746;2022-09-16T10:10:28;16.23;;;6.43;;
2674;SDS011;1347;42.122;24.746;2022-09-16T10:13:05;14.10;;;6.30;;
2674;SDS011;1347;42.122;24.746;2022-09-16T10:15:35;20.47;;;5.90;;
2674;SDS011;1347;42.122;24.746;2022-09-16T10:18:07;22.27;;;6.20;;
2674;SDS011;1347;42.122;24.746;2022-09-16T10:20:37;16.23;;;6.33;;
2674;SDS011;1347;42.122;24.746;2022-09-16T10:23:09;18.43;;;6.83;;
2674;SDS011;1347;42.122;24.746;2022-09-16T10:25:39;13.83;;;6.30;;
2674;SDS011;1347;42.122;24.746;2022-09-16T10:28:16;19.20;;;5.50;;
2674;SDS011;1347;42.122;24.746;2022-09-16T10:30:47;14.00;;;5.87;;
2674;SDS011;1347;42.122;24.746;2022-09-16T10:33:17;13.43;;;6.20;;
2674;SDS011;1347;42.122;24.746;2022-09-16T10:35:52;12.67;;;7.60;;
2674;SDS011;1347;42.122;24.746;2022-09-16T10:38:23;18.10;;;6.70;;
2674;SDS011;1347;42.122;24.746;2022-09-16T10:40:52;21.50;;;8.70;;
2674;SDS011;1347;42.122;24.746;2022-09-16T10:43:22;13.00;;;6.07;;
2674;SDS011;1347;42.122;24.746;2022-09-16T10:45:52;17.93;;;6.20;;
2674;SDS011;1347;42.122;24.746;2022-09-16T10:48:20;20.00;;;6.83;;
2674;SDS011;1347;42.122;24.746;2022-09-16T10:50:53;13.73;;;6.70;;
2674;SDS011;1347;42.122;24.746;2022-09-16T10:53:25;13.70;;;6.33;;
2674;SDS011;1347;42.122;24.746;2022-09-16T10:55:56;21.20;;;7.03;;
2674;SDS011;1347;42.122;24.746;2022-09-16T10:58:24;9.87;;;5.23;;
2674;SDS011;1347;42.122;24.746;2022-09-16T11:00:57;14.63;;;7.07;;
2674;SDS011;1347;42.122;24.746;2022-09-16T11:03:51;16.80;;;7.60;;
2674;SDS011;1347;42.122;24.746;2022-09-16T11:06:34;18.23;;;7.87;;
2674;SDS011;1347;42.122;24.746;2022-09-16T11:09:10;15.40;;;8.10;;
2674;SDS011;1347;42.122;24.746;2022-09-16T11:11:53;13.60;;;7.50;;
2674;SDS011;1347;42.122;24.746;2022-09-16T11:14:34;15.83;;;6.97;;
2674;SDS011;1347;42.122;24.746;2022-09-16T11:17:16;11.37;;;7.20;;
2674;SDS011;1347;42.122;24.746;2022-09-16T11:20:11;16.63;;;7.30;;
2674;SDS011;1347;42.122;24.746;2022-09-16T11:22:57;16.63;;;7.83;;
2674;SDS011;1347;42.122;24.746;2022-09-16T11:25:36;15.17;;;8.70;;
2674;SDS011;1347;42.122;24.746;2022-09-16T11:28:21;17.13;;;7.50;;
2674;SDS011;1347;42.122;24.746;2022-09-16T11:31:04;18.40;;;9.53;;
2674;SDS011;1347;42.122;24.746;2022-09-16T11:33:40;13.07;;;9.30;;
2674;SDS011;1347;42.122;24.746;2022-09-16T11:36:19;14.80;;;8.87;;
2674;SDS011;1347;42.122;24.746;2022-09-16T11:39:02;17.13;;;9.20;;
2674;SDS011;1347;42.122;24.746;2022-09-16T11:41:40;16.37;;;9.70;;
2674;SDS011;1347;42.122;24.746;2022-09-16T11:44:18;29.43;;;10.40;;
2674;SDS011;1347;42.122;24.746;2022-09-16T11:46:57;14.10;;;10.00;;
2674;SDS011;1347;42.122;24.746;2022-09-16T11:49:50;14.87;;;8.80;;
2674;SDS011;1347;42.122;24.746;2022-09-16T11:52:31;17.97;;;7.50;;
2674;SDS011;1347;42.122;24.746;2022-09-16T11:55:20;20.83;;;7.90;;
2674;SDS011;1347;42.122;24.746;2022-09-16T11:57:55;16.60;;;8.27;;
2674;SDS011;1347;42.122;24.746;2022-09-16T12:00:27;15.03;;;6.93;;
2674;SDS011;1347;42.122;24.746;2022-09-16T12:02:58;13.87;;;6.53;;
2674;SDS011;1347;42.122;24.746;2022-09-16T12:05:32;13.27;;;6.27;;
2674;SDS011;1347;42.122;24.746;2022-09-16T12:08:03;12.87;;;7.03;;
2674;SDS011;1347;42.122;24.746;2022-09-16T12:10:38;12.60;;;6.57;;
2674;SDS011;1347;42.122;24.746;2022-09-16T12:13:12;12.20;;;6.00;;
2674;SDS011;1347;42.122;24.746;2022-09-16T12:15:44;11.00;;;5.87;;
2674;SDS011;1347;42.122;24.746;2022-09-16T12:18:16;9.97;;;5.57;;
2674;SDS011;1347;42.122;24.746;2022-09-16T12:20:49;14.20;;;5.33;;
2674;SDS011;1347;42.122;24.746;2022-09-16T12:23:21;13.90;;;5.33;;
2674;SDS011;1347;42.122;24.746;2022-09-16T12:25:51;19.07;;;7.17;;
2674;SDS011;1347;42.122;24.746;2022-09-16T12:28:34;17.83;;;7.40;;
2674;SDS011;1347;42.122;24.746;2022-09-16T12:31:09;19.93;;;6.40;;
2674;SDS011;1347;42.122;24.746;2022-09-16T12:33:42;23.67;;;6.37;;
2674;SDS011;1347;42.122;24.746;2022-09-16T12:36:17;13.70;;;5.93;;
2674;SDS011;1347;42.122;24.746;2022-09-16T12:38:48;14.70;;;4.57;;
2674;SDS011;1347;42.122;24.746;2022-09-16T12:44:29;19.43;;;5.23;;
2674;SDS011;1347;42.122;24.746;2022-09-16T12:47:15;20.60;;;4.73;;
2674;SDS011;1347;42.122;24.746;2022-09-16T12:53:18;14.50;;;5.57;;
2674;SDS011;1347;42.122;24.746;2022-09-16T12:56:01;29.10;;;5.30;;
2674;SDS011;1347;42.122;24.746;2022-09-16T12:58:41;13.63;;;4.10;;
2674;SDS011;1347;42.122;24.746;2022-09-16T13:01:19;18.13;;;5.30;;
2674;SDS011;1347;42.122;24.746;2022-09-16T13:03:51;16.37;;;4.17;;
2674;SDS011;1347;42.122;24.746;2022-09-16T13:06:24;16.03;;;4.13;;
2674;SDS011;1347;42.122;24.746;2022-09-16T13:08:54;10.83;;;4.27;;
2674;SDS011;1347;42.122;24.746;2022-09-16T13:11:22;15.33;;;4.73;;
2674;SDS011;1347;42.122;24.746;2022-09-16T13:13:51;15.27;;;4.30;;
2674;SDS011;1347;42.122;24.746;2022-09-16T13:16:27;13.30;;;4.30;;
2674;SDS011;1347;42.122;24.746;2022-09-16T13:19:06;13.10;;;4.33;;
2674;SDS011;1347;42.122;24.746;2022-09-16T13:21:45;16.37;;;4.53;;
2674;SDS011;1347;42.122;24.746;2022-09-16T13:24:17;12.83;;;4.00;;
2674;SDS011;1347;42.122;24.746;2022-09-16T13:26:48;11.77;;;4.40;;
2674;SDS011;1347;42.122;24.746;2022-09-16T13:29:26;13.30;;;4.00;;
2674;SDS011;1347;42.122;24.746;2022-09-16T13:32:03;19.67;;;4.30;;
2674;SDS011;1347;42.122;24.746;2022-09-16T13:34:31;10.67;;;3.80;;
2674;SDS011;1347;42.122;24.746;2022-09-16T13:36:57;10.27;;;3.70;;
2674;SDS011;1347;42.122;24.746;2022-09-16T13:39:29;7.30;;;3.20;;
2674;SDS011;1347;42.122;24.746;2022-09-16T13:42:08;13.20;;;4.03;;
2674;SDS011;1347;42.122;24.746;2022-09-16T13:44:39;14.27;;;2.97;;
2674;SDS011;1347;42.122;24.746;2022-09-16T13:47:15;9.60;;;4.37;;
2674;SDS011;1347;42.122;24.746;2022-09-16T13:49:45;20.67;;;4.87;;
2674;SDS011;1347;42.122;24.746;2022-09-16T13:52:17;7.90;;;3.30;;
2674;SDS011;1347;42.122;24.746;2022-09-16T13:54:48;8.33;;;3.50;;
2674;SDS011;1347;42.122;24.746;2022-09-16T13:57:23;14.53;;;3.90;;
2674;SDS011;1347;42.122;24.746;2022-09-16T14:00:13;7.83;;;3.37;;
2674;SDS011;1347;42.122;24.746;2022-09-16T14:08:43;10.53;;;3.80;;
2674;SDS011;1347;42.122;24.746;2022-09-16T14:11:21;10.87;;;4.33;;
2674;SDS011;1347;42.122;24.746;2022-09-16T14:13:57;13.50;;;3.40;;
2674;SDS011;1347;42.122;24.746;2022-09-16T14:16:29;12.57;;;3.90;;
2674;SDS011;1347;42.122;24.746;2022-09-16T14:18:59;11.80;;;3.07;;
2674;SDS011;1347;42.122;24.746;2022-09-16T14:21:29;5.40;;;2.87;;
2674;SDS011;1347;42.122;24.746;2022-09-16T14:24:05;7.80;;;3.10;;
2674;SDS011;1347;42.122;24.746;2022-09-16T14:26:35;10.53;;;3.90;;
2674;SDS011;1347;42.122;24.746;2022-09-16T14:29:02;8.17;;;3.10;;
2674;SDS011;1347;42.122;24.746;2022-09-16T14:31:31;5.13;;;3.00;;
2674;SDS011;1347;42.122;24.746;2022-09-16T14:33:59;5.77;;;3.07;;
2674;SDS011;1347;42.122;24.746;2022-09-16T14:36:32;6.40;;;2.87;;
2674;SDS011;1347;42.122;24.746;2022-09-16T14:39:02;9.10;;;3.10;;
2674;SDS011;1347;42.122;24.746;2022-09-16T14:41:38;10.90;;;3.30;;
2674;SDS011;1347;42.122;24.746;2022-09-16T14:44:18;11.90;;;2.83;;
2674;SDS011;1347;42.122;24.746;2022-09-16T14:46:51;6.50;;;2.60;;
2674;SDS011;1347;42.122;24.746;2022-09-16T14:49:23;10.53;;;3.13;;
2674;SDS011;1347;42.122;24.746;2022-09-16T14:51:53;7.30;;;2.80;;
2674;SDS011;1347;42.122;24.746;2022-09-16T14:54:24;8.23;;;3.00;;
2674;SDS011;1347;42.122;24.746;2022-09-16T14:56:58;7.00;;;2.67;;
2674;SDS011;1347;42.122;24.746;2022-09-16T14:59:27;16.73;;;3.30;;
2674;SDS011;1347;42.122;24.746;2022-09-16T15:02:05;9.10;;;3.30;;
2674;SDS011;1347;42.122;24.746;2022-09-16T15:04:38;9.13;;;2.77;;
2674;SDS011;1347;42.122;24.746;2022-09-16T15:07:09;8.80;;;2.63;;
2674;SDS011;1347;42.122;24.746;2022-09-16T15:09:42;8.73;;;2.77;;
2674;SDS011;1347;42.122;24.746;2022-09-16T15:12:17;9.00;;;2.40;;
2674;SDS011;1347;42.122;24.746;2022-09-16T15:14:48;13.43;;;3.97;;
2674;SDS011;1347;42.122;24.746;2022-09-16T15:17:16;7.20;;;3.10;;
2674;SDS011;1347;42.122;24.746;2022-09-16T15:19:47;6.97;;;3.00;;
2674;SDS011;1347;42.122;24.746;2022-09-16T15:22:19;7.33;;;3.50;;
2674;SDS011;1347;42.122;24.746;2022-09-16T15:24:48;12.20;;;2.97;;
2674;SDS011;1347;42.122;24.746;2022-09-16T15:27:26;8.80;;;3.27;;
2674;SDS011;1347;42.122;24.746;2022-09-16T15:29:57;5.53;;;3.10;;
2674;SDS011;1347;42.122;24.746;2022-09-16T15:32:26;5.60;;;3.13;;
2674;SDS011;1347;42.122;24.746;2022-09-16T15:35:17;9.83;;;3.30;;
2674;SDS011;1347;42.122;24.746;2022-09-16T15:37:47;8.93;;;3.30;;
2674;SDS011;1347;42.122;24.746;2022-09-16T15:40:21;5.37;;;2.83;;
2674;SDS011;1347;42.122;24.746;2022-09-16T15:43:03;6.63;;;2.27;;
2674;SDS011;1347;42.122;24.746;2022-09-16T15:45:37;4.00;;;2.80;;